Terminal Aerodrome Forecast
Issued by NWS

Home | Current Version | Previous Version | Text Only | Print | Product List | Glossary On
Versions: 1 2 3 4 5 6 7 8 9 10 11 12 13 14 15 16 17 18 19 20 21 22 23 24 25 26 27 28 29 30 31
000
FTUS43 KAPX 220823 AAA
TAFAPN
TAF AMD
KAPN 220823Z 2208/2306 00000KT 3SM BR SCT002
      TEMPO 2208/2212 1/2SM FG VV002
     FM221400 20006KT P6SM FEW100
     FM221800 16008KT P6SM FEW050=

USA.gov is the U.S. government's official web portal to all federal, state and local government web resources and services.